createdAt,value
2022-09-03T00:01:45.387Z,15.00
2022-09-03T00:04:37.222Z,14.90
2022-09-03T00:07:11.659Z,14.90
2022-09-03T00:09:47.309Z,14.90
2022-09-03T00:12:28.103Z,14.80
2022-09-03T00:15:09.451Z,14.80
2022-09-03T00:17:42.487Z,14.80
2022-09-03T00:20:18.936Z,14.70
2022-09-03T00:22:51.823Z,14.70
2022-09-03T00:25:28.144Z,14.70
2022-09-03T00:27:58.620Z,14.70
2022-09-03T00:30:28.135Z,14.70
2022-09-03T00:32:58.961Z,14.70
2022-09-03T00:35:42.098Z,14.70
2022-09-03T00:38:09.478Z,14.70
2022-09-03T00:40:53.922Z,14.50
2022-09-03T00:43:42.490Z,14.50
2022-09-03T00:46:30.276Z,14.40
2022-09-03T00:49:06.064Z,14.40
2022-09-03T00:51:36.204Z,14.40
2022-09-03T00:54:14.661Z,14.40
2022-09-03T00:57:05.474Z,14.40
2022-09-03T01:00:00.174Z,14.30
2022-09-03T01:03:01.063Z,14.30
2022-09-03T01:05:48.763Z,14.20
2022-09-03T01:08:29.003Z,14.20
2022-09-03T01:11:10.916Z,14.20
2022-09-03T01:13:44.531Z,14.10
2022-09-03T01:16:20.517Z,14.00
2022-09-03T01:19:00.527Z,14.00
2022-09-03T01:21:39.188Z,13.90
2022-09-03T01:24:28.903Z,13.90
2022-09-03T01:27:26.512Z,13.80
2022-09-03T01:30:07.205Z,13.80
2022-09-03T01:32:53.022Z,13.70
2022-09-03T01:35:35.102Z,13.60
2022-09-03T01:38:18.561Z,13.60
2022-09-03T01:40:54.718Z,13.60
2022-09-03T01:43:45.604Z,13.60
2022-09-03T01:46:36.543Z,13.60
2022-09-03T01:49:31.239Z,13.60
2022-09-03T01:52:26.246Z,13.60
2022-09-03T01:55:15.494Z,13.60
2022-09-03T01:58:20.160Z,13.70
2022-09-03T02:00:53.283Z,13.60
2022-09-03T02:03:20.767Z,13.60
2022-09-03T02:05:47.960Z,13.60
2022-09-03T02:08:14.806Z,13.60
2022-09-03T02:10:52.562Z,13.50
2022-09-03T02:13:35.037Z,13.50
2022-09-03T02:16:24.394Z,13.50
2022-09-03T02:19:01.068Z,13.50
2022-09-03T02:21:35.410Z,13.40
2022-09-03T02:24:05.023Z,13.30
2022-09-03T02:26:33.065Z,13.30
2022-09-03T02:29:02.602Z,13.20
2022-09-03T02:31:29.722Z,13.10
2022-09-03T02:33:58.061Z,13.20
2022-09-03T02:36:32.173Z,13.10
2022-09-03T02:38:59.421Z,13.10
2022-09-03T02:41:27.458Z,13.10
2022-09-03T02:44:02.793Z,13.00
2022-09-03T02:46:40.006Z,13.00
2022-09-03T02:49:07.149Z,13.00
2022-09-03T02:51:39.911Z,13.00
2022-09-03T02:54:08.490Z,13.00
2022-09-03T02:56:35.362Z,13.00
2022-09-03T02:59:03.361Z,13.00
2022-09-03T03:01:30.496Z,12.90
2022-09-03T03:03:59.766Z,12.90
2022-09-03T03:06:26.712Z,12.90
2022-09-03T03:08:57.729Z,12.90
2022-09-03T03:11:25.178Z,12.90
2022-09-03T03:13:52.382Z,12.80
2022-09-03T03:16:19.656Z,12.80
2022-09-03T03:18:46.592Z,12.80
2022-09-03T03:21:18.338Z,12.80
2022-09-03T03:23:45.611Z,12.70
2022-09-03T03:26:15.677Z,12.70
2022-09-03T03:28:42.967Z,12.70
2022-09-03T03:31:12.642Z,12.60
2022-09-03T03:33:40.092Z,12.70
2022-09-03T03:36:09.148Z,12.60
2022-09-03T03:38:36.985Z,12.60
2022-09-03T03:41:18.725Z,12.60
2022-09-03T03:43:45.926Z,12.60
2022-09-03T03:46:12.836Z,12.70
2022-09-03T03:48:39.994Z,12.60
2022-09-03T03:51:09.185Z,12.50
2022-09-03T03:53:39.871Z,12.50
2022-09-03T03:56:10.637Z,12.50
2022-09-03T03:58:43.054Z,12.50
2022-09-03T04:01:09.860Z,12.60
2022-09-03T04:03:37.851Z,12.60
2022-09-03T04:06:06.146Z,12.70
2022-09-03T04:08:41.176Z,12.60
2022-09-03T04:11:12.189Z,12.40
2022-09-03T04:13:41.509Z,12.40
2022-09-03T04:16:11.406Z,12.40
2022-09-03T04:18:40.099Z,12.40
2022-09-03T04:21:10.369Z,12.40
2022-09-03T04:23:40.227Z,12.40
2022-09-03T04:26:10.079Z,12.30
2022-09-03T04:28:37.630Z,12.40
2022-09-03T04:31:06.915Z,12.40
2022-09-03T04:33:35.704Z,12.40
2022-09-03T04:36:23.610Z,12.30
2022-09-03T04:38:54.155Z,12.30
2022-09-03T04:41:25.520Z,12.30
2022-09-03T04:43:54.212Z,12.30
2022-09-03T04:46:22.929Z,12.30
2022-09-03T04:48:51.719Z,12.30
2022-09-03T04:51:24.071Z,12.30
2022-09-03T04:53:57.220Z,12.30
2022-09-03T04:56:27.311Z,12.30
2022-09-03T04:58:59.941Z,12.30
2022-09-03T05:01:30.520Z,12.40
2022-09-03T05:03:58.503Z,12.40
2022-09-03T05:06:29.630Z,12.40
2022-09-03T05:08:57.358Z,12.60
2022-09-03T05:11:25.339Z,12.60
2022-09-03T05:13:55.279Z,12.70
2022-09-03T05:16:23.670Z,12.80
2022-09-03T05:18:54.964Z,12.90
2022-09-03T05:21:22.437Z,12.90
2022-09-03T05:23:51.012Z,13.00
2022-09-03T05:26:20.590Z,13.10
2022-09-03T05:28:48.125Z,13.00
2022-09-03T05:31:17.580Z,13.10
2022-09-03T05:33:52.725Z,13.10
2022-09-03T05:36:22.965Z,13.10
2022-09-03T05:38:50.388Z,13.20
2022-09-03T05:41:18.982Z,13.30
2022-09-03T05:43:53.569Z,13.30
2022-09-03T05:46:20.654Z,13.40
2022-09-03T05:48:47.422Z,13.50
2022-09-03T05:51:16.762Z,14.30
2022-09-03T05:53:48.634Z,17.10
2022-09-03T05:56:19.087Z,20.50
2022-09-03T05:58:48.361Z,21.80
2022-09-03T06:01:18.250Z,22.80
2022-09-03T06:03:46.921Z,23.30
2022-09-03T06:06:14.785Z,22.40
2022-09-03T06:08:42.803Z,21.50
2022-09-03T06:11:09.661Z,20.30
2022-09-03T06:13:36.506Z,22.50
2022-09-03T06:16:05.736Z,22.70
2022-09-03T06:18:33.203Z,21.70
2022-09-03T06:21:03.832Z,23.70
2022-09-03T06:23:31.626Z,22.70
2022-09-03T06:26:13.214Z,23.20
2022-09-03T06:28:45.383Z,25.10
2022-09-03T06:31:14.675Z,23.40
2022-09-03T06:33:42.552Z,22.70
2022-09-03T06:36:13.033Z,21.70
2022-09-03T06:38:40.923Z,23.50
2022-09-03T06:41:14.116Z,22.80
2022-09-03T06:43:42.564Z,22.50
2022-09-03T06:46:14.095Z,24.00
2022-09-03T06:48:42.015Z,24.10
2022-09-03T06:51:15.798Z,23.60
2022-09-03T06:53:44.945Z,20.90
2022-09-03T06:56:15.339Z,20.00
2022-09-03T06:58:49.645Z,19.90
2022-09-03T07:01:23.780Z,19.80
2022-09-03T07:03:57.207Z,20.70
2022-09-03T07:06:27.326Z,21.30
2022-09-03T07:08:56.588Z,19.60
2022-09-03T07:11:26.220Z,18.40
2022-09-03T07:13:54.421Z,17.20
2022-09-03T07:16:22.421Z,17.10
2022-09-03T07:18:49.796Z,17.10
2022-09-03T07:21:19.741Z,16.90
2022-09-03T07:23:48.118Z,17.00
2022-09-03T07:26:17.907Z,16.90
2022-09-03T07:28:46.092Z,17.10
2022-09-03T07:31:34.750Z,17.00
2022-09-03T07:34:06.161Z,17.20
2022-09-03T07:36:40.137Z,17.30
2022-09-03T07:39:08.696Z,17.40
2022-09-03T07:41:35.662Z,17.40
2022-09-03T07:44:05.627Z,17.50
2022-09-03T07:46:34.416Z,17.60
2022-09-03T07:49:05.232Z,17.60
2022-09-03T07:51:38.429Z,17.60
2022-09-03T07:54:07.766Z,17.60
2022-09-03T07:56:35.946Z,18.00
2022-09-03T07:59:04.236Z,18.10
2022-09-03T08:01:32.872Z,18.00
2022-09-03T08:04:00.537Z,18.00
2022-09-03T08:06:29.490Z,18.20
2022-09-03T08:09:05.519Z,18.20
2022-09-03T08:11:36.116Z,18.40
2022-09-03T08:14:06.660Z,18.70
2022-09-03T08:16:39.646Z,18.80
2022-09-03T08:19:07.582Z,18.70
2022-09-03T08:21:35.374Z,18.50
2022-09-03T08:24:05.022Z,18.90
2022-09-03T08:26:37.958Z,18.90
2022-09-03T08:29:06.036Z,18.80
2022-09-03T08:31:34.293Z,18.80
2022-09-03T08:34:06.538Z,18.90
2022-09-03T08:36:36.257Z,18.90
2022-09-03T08:39:09.740Z,19.20
2022-09-03T08:41:56.119Z,19.10
2022-09-03T08:44:39.962Z,18.90
2022-09-03T08:47:15.802Z,19.00
2022-09-03T08:49:55.368Z,19.20
2022-09-03T08:52:47.031Z,19.40
2022-09-03T08:55:31.145Z,19.40
2022-09-03T08:58:02.286Z,19.50
2022-09-03T09:00:48.753Z,19.60
2022-09-03T09:03:21.959Z,19.50
2022-09-03T09:06:17.227Z,19.80
2022-09-03T09:08:53.202Z,19.90
2022-09-03T09:11:38.533Z,19.70
2022-09-03T09:14:15.438Z,19.60
2022-09-03T09:17:02.089Z,19.80
2022-09-03T09:19:50.812Z,20.10
2022-09-03T09:22:51.857Z,20.30
2022-09-03T09:25:22.056Z,20.40
2022-09-03T09:27:56.359Z,20.40
2022-09-03T09:30:23.582Z,20.70
2022-09-03T09:32:50.958Z,20.50
2022-09-03T09:35:19.037Z,20.60
2022-09-03T09:37:58.517Z,20.50
2022-09-03T09:40:33.888Z,20.70
2022-09-03T09:43:04.428Z,20.70
2022-09-03T09:45:34.176Z,20.90
2022-09-03T09:48:03.032Z,20.90
2022-09-03T09:50:30.087Z,20.90
2022-09-03T09:53:08.563Z,21.00
2022-09-03T09:55:37.642Z,21.10
2022-09-03T09:58:14.249Z,20.90
2022-09-03T10:01:08.155Z,21.10
2022-09-03T10:03:35.718Z,21.20
2022-09-03T10:06:27.797Z,21.50
2022-09-03T10:09:07.509Z,21.60
2022-09-03T10:11:40.306Z,22.00
2022-09-03T10:14:33.260Z,21.80
2022-09-03T10:17:14.261Z,21.80
2022-09-03T10:20:25.631Z,22.10
2022-09-03T10:22:58.066Z,22.10
2022-09-03T10:25:39.323Z,22.50
2022-09-03T10:28:09.921Z,22.90
2022-09-03T10:31:13.712Z,22.80
2022-09-03T10:34:14.201Z,23.10
2022-09-03T10:36:59.703Z,23.00
2022-09-03T10:39:52.319Z,22.50
2022-09-03T10:42:41.103Z,23.40
2022-09-03T10:45:19.707Z,23.70
2022-09-03T10:48:01.935Z,23.60
2022-09-03T10:50:51.541Z,23.20
2022-09-03T10:53:22.013Z,22.90
2022-09-03T10:56:08.826Z,23.80
2022-09-03T10:58:58.350Z,23.90
2022-09-03T11:01:34.865Z,23.30
2022-09-03T11:04:14.312Z,23.40
2022-09-03T11:07:13.222Z,23.40
2022-09-03T11:10:04.101Z,23.50
2022-09-03T11:12:53.063Z,23.60
2022-09-03T11:15:37.982Z,23.50
2022-09-03T11:18:17.961Z,23.60
2022-09-03T11:20:46.048Z,23.90
2022-09-03T11:23:14.913Z,23.80
2022-09-03T11:25:47.031Z,23.20
2022-09-03T11:28:32.397Z,23.40
2022-09-03T11:31:17.809Z,23.20
2022-09-03T11:34:13.991Z,23.30
2022-09-03T11:36:50.575Z,23.10
2022-09-03T11:39:26.666Z,23.40
2022-09-03T11:42:07.045Z,23.80
2022-09-03T11:44:52.201Z,23.80
2022-09-03T11:47:24.070Z,23.90
2022-09-03T11:49:53.649Z,23.70
2022-09-03T11:52:32.510Z,24.20
2022-09-03T11:54:59.510Z,23.80
2022-09-03T11:57:31.295Z,24.40
2022-09-03T12:00:12.629Z,24.70
2022-09-03T12:02:46.611Z,24.40
2022-09-03T12:05:22.379Z,24.50
2022-09-03T12:08:08.962Z,24.50
2022-09-03T12:11:05.764Z,24.30
2022-09-03T12:13:50.969Z,24.00
2022-09-03T12:16:48.080Z,23.60
2022-09-03T12:19:27.541Z,23.50
2022-09-03T12:21:55.361Z,23.70
2022-09-03T12:24:23.385Z,23.70
2022-09-03T12:26:50.401Z,23.60
2022-09-03T12:29:27.857Z,23.70
2022-09-03T12:31:56.549Z,23.70
2022-09-03T12:34:25.753Z,23.90
2022-09-03T12:36:54.664Z,23.90
2022-09-03T12:40:04.895Z,24.10
2022-09-03T12:42:15.096Z,23.90
2022-09-03T12:44:42.524Z,24.10
2022-09-03T12:47:37.380Z,24.00
2022-09-03T12:50:11.529Z,23.80
2022-09-03T12:52:50.275Z,23.80
2022-09-03T12:55:38.400Z,24.00
2022-09-03T12:58:17.071Z,24.10
2022-09-03T13:01:11.449Z,23.80
2022-09-03T13:03:57.914Z,24.10
2022-09-03T13:06:33.920Z,24.10
2022-09-03T13:09:07.034Z,24.10
2022-09-03T13:11:36.893Z,24.10
2022-09-03T13:14:14.752Z,24.10
2022-09-03T13:16:51.113Z,24.00
2022-09-03T13:20:04.693Z,24.20
2022-09-03T13:22:34.361Z,24.00
2022-09-03T13:25:16.322Z,24.30
2022-09-03T13:28:11.110Z,24.30
2022-09-03T13:30:48.264Z,24.40
2022-09-03T13:33:29.204Z,24.10
2022-09-03T13:36:16.712Z,24.20
2022-09-03T13:38:46.766Z,24.10
2022-09-03T13:41:32.510Z,23.90
2022-09-03T13:44:35.772Z,23.90
2022-09-03T13:47:31.223Z,23.90
2022-09-03T13:50:27.191Z,24.00
2022-09-03T13:53:07.900Z,24.00
2022-09-03T13:55:47.506Z,24.00
2022-09-03T13:58:36.320Z,24.20
2022-09-03T14:01:22.255Z,24.40
2022-09-03T14:03:55.247Z,24.30
2022-09-03T14:06:41.032Z,24.20
2022-09-03T14:09:35.642Z,24.20
2022-09-03T14:12:37.799Z,23.90
2022-09-03T14:15:44.859Z,24.00
2022-09-03T14:18:33.827Z,24.20
2022-09-03T14:21:07.274Z,24.30
2022-09-03T14:23:51.539Z,24.30
2022-09-03T14:26:38.487Z,24.30
2022-09-03T14:29:12.517Z,24.20
2022-09-03T14:31:42.494Z,24.30
2022-09-03T14:34:12.458Z,24.10
2022-09-03T14:37:04.266Z,24.10
2022-09-03T14:40:05.236Z,24.30
2022-09-03T14:42:52.916Z,24.20
2022-09-03T14:45:27.522Z,24.30
2022-09-03T14:48:06.643Z,24.30
2022-09-03T14:51:04.713Z,24.10
2022-09-03T14:54:09.712Z,24.10
2022-09-03T14:56:45.857Z,24.40
2022-09-03T14:59:18.541Z,24.40
2022-09-03T15:01:52.621Z,24.20
2022-09-03T15:04:37.855Z,24.30
2022-09-03T15:07:49.190Z,24.40
2022-09-03T15:10:42.804Z,24.10
2022-09-03T15:13:27.613Z,24.10
2022-09-03T15:16:09.165Z,24.10
2022-09-03T15:19:02.009Z,24.30
2022-09-03T15:22:03.586Z,24.30
2022-09-03T15:24:36.366Z,24.30
2022-09-03T15:27:24.967Z,24.30
2022-09-03T15:30:05.257Z,24.40
2022-09-03T15:32:56.932Z,24.50
2022-09-03T15:35:43.770Z,24.40
2022-09-03T15:38:13.840Z,24.60
2022-09-03T15:40:40.685Z,24.30
2022-09-03T15:43:16.043Z,24.40
2022-09-03T15:45:49.080Z,24.30
2022-09-03T15:48:39.662Z,24.10
2022-09-03T15:51:43.224Z,24.00
2022-09-03T15:54:46.590Z,23.90
2022-09-03T15:57:24.350Z,23.90
2022-09-03T16:00:02.619Z,23.90
2022-09-03T16:02:35.659Z,23.70
2022-09-03T16:05:16.372Z,23.70
2022-09-03T16:08:06.166Z,23.60
2022-09-03T16:11:03.351Z,23.60
2022-09-03T16:13:45.346Z,23.40
2022-09-03T16:16:36.887Z,23.40
2022-09-03T16:19:17.292Z,23.50
2022-09-03T16:21:50.449Z,23.50
2022-09-03T16:24:55.274Z,23.60
2022-09-03T16:27:33.468Z,23.60
2022-09-03T16:30:22.332Z,23.60
2022-09-03T16:33:23.270Z,23.50
2022-09-03T16:36:02.784Z,23.60
2022-09-03T16:39:01.920Z,23.60
2022-09-03T16:41:40.589Z,23.60
2022-09-03T16:44:10.775Z,23.60
2022-09-03T16:47:04.221Z,23.50
2022-09-03T16:49:46.730Z,23.50
2022-09-03T16:52:39.041Z,23.40
2022-09-03T16:55:41.647Z,23.40
2022-09-03T16:58:57.994Z,23.40
2022-09-03T17:02:23.696Z,23.30
2022-09-03T17:05:12.463Z,23.20
2022-09-03T17:07:42.130Z,23.10
2022-09-03T17:10:30.253Z,23.10
2022-09-03T17:13:25.014Z,23.00
2022-09-03T17:16:24.436Z,22.90
2022-09-03T17:19:14.810Z,22.80
2022-09-03T17:22:08.330Z,22.90
2022-09-03T17:25:06.403Z,22.80
2022-09-03T17:27:55.984Z,22.80
2022-09-03T17:30:44.446Z,22.70
2022-09-03T17:33:40.089Z,22.60
2022-09-03T17:36:18.625Z,22.60
2022-09-03T17:39:24.478Z,22.50
2022-09-03T17:42:02.862Z,22.40
2022-09-03T17:44:56.759Z,22.40
2022-09-03T17:47:58.805Z,22.40
2022-09-03T17:50:33.135Z,22.20
2022-09-03T17:53:01.969Z,22.20
2022-09-03T17:55:50.653Z,22.10
2022-09-03T17:58:40.271Z,22.00
2022-09-03T18:01:10.435Z,22.00
2022-09-03T18:04:02.251Z,21.90
2022-09-03T18:06:41.104Z,21.90
2022-09-03T18:09:38.075Z,21.90
2022-09-03T18:12:09.229Z,21.80
2022-09-03T18:14:47.272Z,21.70
2022-09-03T18:17:31.442Z,21.70
2022-09-03T18:20:26.327Z,21.70
2022-09-03T18:23:24.261Z,21.70
2022-09-03T18:26:20.107Z,21.70
2022-09-03T18:29:19.638Z,21.70
2022-09-03T18:32:05.314Z,21.70
2022-09-03T18:34:57.703Z,21.60
2022-09-03T18:37:45.810Z,21.60
2022-09-03T18:40:44.533Z,21.50
2022-09-03T18:43:49.232Z,21.50
2022-09-03T18:50:21.802Z,21.50
2022-09-03T18:53:13.375Z,21.50
2022-09-03T18:56:18.837Z,21.40
2022-09-03T18:59:31.471Z,21.30
2022-09-03T19:02:23.853Z,21.10
2022-09-03T19:05:43.304Z,21.20
2022-09-03T19:08:47.820Z,21.00
2022-09-03T19:11:36.577Z,20.80
2022-09-03T19:14:27.402Z,20.70
2022-09-03T19:17:21.910Z,20.60
2022-09-03T19:20:36.799Z,20.50
2022-09-03T19:23:22.775Z,20.30
2022-09-03T19:26:10.775Z,20.10
2022-09-03T19:29:05.146Z,20.00
2022-09-03T19:32:31.167Z,20.00
2022-09-03T19:35:34.081Z,19.90
2022-09-03T19:38:25.913Z,19.90
2022-09-03T19:41:31.369Z,19.70
2022-09-03T19:44:35.606Z,19.60
2022-09-03T19:47:22.228Z,19.40
2022-09-03T19:50:22.854Z,19.30
2022-09-03T19:53:41.959Z,19.20
2022-09-03T19:56:38.836Z,19.00
2022-09-03T19:59:36.501Z,18.90
2022-09-03T20:02:22.396Z,18.80
2022-09-03T20:05:19.127Z,18.90
2022-09-03T20:08:07.647Z,19.00
2022-09-03T20:10:36.458Z,19.00
2022-09-03T20:13:15.302Z,19.00
2022-09-03T20:16:02.585Z,18.90
2022-09-03T20:18:48.422Z,18.90
2022-09-03T20:21:33.370Z,18.80
2022-09-03T20:24:31.371Z,18.70
2022-09-03T20:26:58.180Z,18.60
2022-09-03T20:30:06.576Z,18.30
2022-09-03T20:32:33.405Z,18.30
2022-09-03T20:35:06.009Z,18.20
2022-09-03T20:37:45.501Z,18.30
2022-09-03T20:40:28.840Z,18.30
2022-09-03T20:43:24.014Z,18.30
2022-09-03T20:46:37.337Z,18.20
2022-09-03T20:49:13.277Z,18.20
2022-09-03T20:51:47.939Z,18.20
2022-09-03T20:54:23.328Z,18.10
2022-09-03T20:57:05.768Z,18.00
2022-09-03T21:00:10.697Z,17.90
2022-09-03T21:02:51.874Z,17.80
2022-09-03T21:05:29.835Z,17.70
2022-09-03T21:08:11.914Z,17.70
2022-09-03T21:10:50.490Z,17.70
2022-09-03T21:13:28.233Z,17.60
2022-09-03T21:16:03.347Z,17.60
2022-09-03T21:18:58.810Z,17.50
2022-09-03T21:22:03.426Z,17.40
2022-09-03T21:24:53.068Z,17.30
2022-09-03T21:27:24.403Z,17.40
2022-09-03T21:30:03.691Z,17.30
2022-09-03T21:33:07.931Z,17.30
2022-09-03T21:35:54.944Z,17.20
2022-09-03T21:38:28.185Z,17.20
2022-09-03T21:41:16.670Z,17.20
2022-09-03T21:43:54.951Z,17.10
2022-09-03T21:46:23.712Z,17.20
2022-09-03T21:49:02.996Z,17.10
2022-09-03T21:51:52.062Z,17.20
2022-09-03T21:54:25.080Z,17.10
2022-09-03T21:57:29.032Z,17.00
2022-09-03T22:00:19.374Z,16.80
2022-09-03T22:02:49.100Z,16.80
2022-09-03T22:05:18.546Z,16.80
2022-09-03T22:07:55.656Z,16.80
2022-09-03T22:10:33.277Z,16.80
2022-09-03T22:13:31.053Z,16.70
2022-09-03T22:16:13.450Z,16.60
2022-09-03T22:18:40.711Z,16.50
2022-09-03T22:22:00.275Z,16.50
2022-09-03T22:24:27.082Z,16.50
2022-09-03T22:27:18.497Z,16.40
2022-09-03T22:30:08.434Z,16.40
2022-09-03T22:32:41.037Z,16.20
2022-09-03T22:35:26.334Z,16.20
2022-09-03T22:38:31.573Z,16.20
2022-09-03T22:41:20.196Z,16.10
2022-09-03T22:44:04.637Z,16.00
2022-09-03T22:47:02.206Z,16.00
2022-09-03T22:49:38.065Z,16.10
2022-09-03T22:52:23.381Z,16.00
2022-09-03T22:55:11.494Z,16.00
2022-09-03T22:57:51.861Z,16.00
2022-09-03T23:00:19.077Z,16.00
2022-09-03T23:02:53.513Z,16.00
2022-09-03T23:05:35.399Z,16.00
2022-09-03T23:08:11.227Z,16.00
2022-09-03T23:11:09.672Z,16.00
2022-09-03T23:13:43.056Z,15.90
2022-09-03T23:16:31.118Z,15.90
2022-09-03T23:19:01.645Z,15.80
2022-09-03T23:21:40.884Z,15.70
2022-09-03T23:24:20.393Z,15.80
2022-09-03T23:26:51.382Z,15.70
2022-09-03T23:29:39.388Z,15.70
2022-09-03T23:32:09.292Z,15.70
2022-09-03T23:34:46.885Z,15.60
2022-09-03T23:37:50.524Z,15.60
2022-09-03T23:40:45.475Z,15.70
2022-09-03T23:43:53.686Z,15.70
2022-09-03T23:46:30.897Z,15.70
2022-09-03T23:49:20.551Z,15.60
2022-09-03T23:52:03.830Z,15.60
2022-09-03T23:54:30.614Z,15.60
2022-09-03T23:57:00.848Z,15.50
2022-09-03T23:59:51.437Z,15.40
